sensor_id;sensor_type;location;lat;lon;timestamp;P1;durP1;ratioP1;P2;durP2;ratioP2
39566;SDS011;25241;41.978;14.664;2024-03-29T00:01:39;7.05;;;0.50;;
39566;SDS011;25241;41.978;14.664;2024-03-29T00:04:07;6.38;;;0.85;;
39566;SDS011;25241;41.978;14.664;2024-03-29T00:06:33;9.00;;;0.95;;
39566;SDS011;25241;41.978;14.664;2024-03-29T00:08:58;1.25;;;0.50;;
39566;SDS011;25241;41.978;14.664;2024-03-29T00:11:25;13.63;;;0.68;;
39566;SDS011;25241;41.978;14.664;2024-03-29T00:13:50;17.58;;;0.60;;
39566;SDS011;25241;41.978;14.664;2024-03-29T00:16:18;4.57;;;0.50;;
39566;SDS011;25241;41.978;14.664;2024-03-29T00:18:45;4.77;;;0.70;;
39566;SDS011;25241;41.978;14.664;2024-03-29T00:21:13;12.85;;;0.82;;
39566;SDS011;25241;41.978;14.664;2024-03-29T00:23:41;7.90;;;1.23;;
39566;SDS011;25241;41.978;14.664;2024-03-29T00:26:09;3.47;;;0.50;;
39566;SDS011;25241;41.978;14.664;2024-03-29T00:28:34;22.55;;;1.00;;
39566;SDS011;25241;41.978;14.664;2024-03-29T00:31:00;1.55;;;0.63;;
39566;SDS011;25241;41.978;14.664;2024-03-29T00:33:25;14.93;;;0.77;;
39566;SDS011;25241;41.978;14.664;2024-03-29T00:35:53;12.95;;;0.98;;
39566;SDS011;25241;41.978;14.664;2024-03-29T00:38:19;6.03;;;0.73;;
39566;SDS011;25241;41.978;14.664;2024-03-29T00:40:44;7.97;;;0.63;;
39566;SDS011;25241;41.978;14.664;2024-03-29T00:43:12;4.75;;;0.98;;
39566;SDS011;25241;41.978;14.664;2024-03-29T00:45:40;12.77;;;0.90;;
39566;SDS011;25241;41.978;14.664;2024-03-29T00:48:07;7.57;;;0.80;;
39566;SDS011;25241;41.978;14.664;2024-03-29T00:50:32;6.45;;;0.75;;
39566;SDS011;25241;41.978;14.664;2024-03-29T00:53:00;3.83;;;0.68;;
39566;SDS011;25241;41.978;14.664;2024-03-29T00:55:26;9.02;;;0.55;;
39566;SDS011;25241;41.978;14.664;2024-03-29T00:57:52;26.88;;;1.35;;
39566;SDS011;25241;41.978;14.664;2024-03-29T01:00:17;8.02;;;0.55;;
39566;SDS011;25241;41.978;14.664;2024-03-29T01:02:43;1.65;;;0.43;;
39566;SDS011;25241;41.978;14.664;2024-03-29T01:05:08;7.03;;;1.25;;
39566;SDS011;25241;41.978;14.664;2024-03-29T01:07:34;9.65;;;1.15;;
39566;SDS011;25241;41.978;14.664;2024-03-29T01:10:00;5.35;;;0.50;;
39566;SDS011;25241;41.978;14.664;2024-03-29T01:12:28;7.78;;;0.80;;
39566;SDS011;25241;41.978;14.664;2024-03-29T01:14:53;1.00;;;0.22;;
39566;SDS011;25241;41.978;14.664;2024-03-29T01:17:21;4.75;;;0.65;;
39566;SDS011;25241;41.978;14.664;2024-03-29T01:19:46;8.98;;;0.88;;
39566;SDS011;25241;41.978;14.664;2024-03-29T01:22:12;7.88;;;0.28;;
39566;SDS011;25241;41.978;14.664;2024-03-29T01:24:38;3.47;;;0.40;;
39566;SDS011;25241;41.978;14.664;2024-03-29T01:27:04;3.72;;;1.00;;
39566;SDS011;25241;41.978;14.664;2024-03-29T01:29:34;8.55;;;1.05;;
39566;SDS011;25241;41.978;14.664;2024-03-29T01:31:59;4.95;;;0.77;;
39566;SDS011;25241;41.978;14.664;2024-03-29T01:34:25;9.57;;;0.95;;
39566;SDS011;25241;41.978;14.664;2024-03-29T01:36:53;6.18;;;0.30;;
39566;SDS011;25241;41.978;14.664;2024-03-29T01:39:18;3.28;;;0.32;;
39566;SDS011;25241;41.978;14.664;2024-03-29T01:41:46;5.85;;;0.65;;
39566;SDS011;25241;41.978;14.664;2024-03-29T01:44:14;16.33;;;1.60;;
39566;SDS011;25241;41.978;14.664;2024-03-29T01:46:40;5.35;;;0.57;;
39566;SDS011;25241;41.978;14.664;2024-03-29T01:49:05;1.52;;;0.50;;
39566;SDS011;25241;41.978;14.664;2024-03-29T01:51:34;2.15;;;0.40;;
39566;SDS011;25241;41.978;14.664;2024-03-29T01:54:01;1.48;;;0.35;;
39566;SDS011;25241;41.978;14.664;2024-03-29T01:56:26;2.50;;;0.35;;
39566;SDS011;25241;41.978;14.664;2024-03-29T01:58:55;0.63;;;0.38;;
39566;SDS011;25241;41.978;14.664;2024-03-29T02:01:24;6.93;;;0.73;;
39566;SDS011;25241;41.978;14.664;2024-03-29T02:03:54;1.85;;;0.40;;
39566;SDS011;25241;41.978;14.664;2024-03-29T02:06:19;7.25;;;0.40;;
39566;SDS011;25241;41.978;14.664;2024-03-29T02:08:45;7.53;;;0.65;;
39566;SDS011;25241;41.978;14.664;2024-03-29T02:11:12;1.63;;;0.68;;
39566;SDS011;25241;41.978;14.664;2024-03-29T02:13:40;3.95;;;0.30;;
39566;SDS011;25241;41.978;14.664;2024-03-29T02:16:09;4.95;;;0.17;;
39566;SDS011;25241;41.978;14.664;2024-03-29T02:18:34;2.22;;;0.28;;
39566;SDS011;25241;41.978;14.664;2024-03-29T02:21:02;4.75;;;0.20;;
39566;SDS011;25241;41.978;14.664;2024-03-29T02:23:29;8.32;;;0.30;;
39566;SDS011;25241;41.978;14.664;2024-03-29T02:25:55;2.03;;;0.20;;
39566;SDS011;25241;41.978;14.664;2024-03-29T02:28:22;3.15;;;0.43;;
39566;SDS011;25241;41.978;14.664;2024-03-29T02:30:49;1.85;;;1.10;;
39566;SDS011;25241;41.978;14.664;2024-03-29T02:33:17;3.22;;;0.40;;
39566;SDS011;25241;41.978;14.664;2024-03-29T02:35:45;6.32;;;0.43;;
39566;SDS011;25241;41.978;14.664;2024-03-29T02:38:11;2.85;;;0.43;;
39566;SDS011;25241;41.978;14.664;2024-03-29T02:40:36;1.50;;;0.30;;
39566;SDS011;25241;41.978;14.664;2024-03-29T02:43:02;3.08;;;0.32;;
39566;SDS011;25241;41.978;14.664;2024-03-29T02:45:30;5.97;;;2.15;;
39566;SDS011;25241;41.978;14.664;2024-03-29T02:47:58;6.97;;;0.50;;
39566;SDS011;25241;41.978;14.664;2024-03-29T02:50:23;0.65;;;0.10;;
39566;SDS011;25241;41.978;14.664;2024-03-29T02:52:51;4.22;;;0.30;;
39566;SDS011;25241;41.978;14.664;2024-03-29T02:55:17;7.28;;;0.47;;
39566;SDS011;25241;41.978;14.664;2024-03-29T02:57:43;4.60;;;0.40;;
39566;SDS011;25241;41.978;14.664;2024-03-29T03:00:08;0.93;;;0.20;;
39566;SDS011;25241;41.978;14.664;2024-03-29T03:02:43;11.13;;;0.65;;
39566;SDS011;25241;41.978;14.664;2024-03-29T03:05:11;10.20;;;0.40;;
39566;SDS011;25241;41.978;14.664;2024-03-29T03:07:36;4.47;;;0.47;;
39566;SDS011;25241;41.978;14.664;2024-03-29T03:10:22;2.78;;;0.60;;
39566;SDS011;25241;41.978;14.664;2024-03-29T03:13:06;2.60;;;0.50;;
39566;SDS011;25241;41.978;14.664;2024-03-29T03:15:34;2.13;;;0.40;;
39566;SDS011;25241;41.978;14.664;2024-03-29T03:18:02;11.55;;;0.50;;
39566;SDS011;25241;41.978;14.664;2024-03-29T03:20:28;6.55;;;0.70;;
39566;SDS011;25241;41.978;14.664;2024-03-29T03:22:58;1.35;;;0.43;;
39566;SDS011;25241;41.978;14.664;2024-03-29T03:25:29;7.60;;;0.68;;
39566;SDS011;25241;41.978;14.664;2024-03-29T03:27:57;10.40;;;0.30;;
39566;SDS011;25241;41.978;14.664;2024-03-29T03:30:23;2.30;;;0.40;;
39566;SDS011;25241;41.978;14.664;2024-03-29T03:32:50;3.50;;;0.55;;
39566;SDS011;25241;41.978;14.664;2024-03-29T03:35:18;0.98;;;0.40;;
39566;SDS011;25241;41.978;14.664;2024-03-29T03:37:44;6.93;;;1.13;;
39566;SDS011;25241;41.978;14.664;2024-03-29T03:40:09;5.93;;;0.35;;
39566;SDS011;25241;41.978;14.664;2024-03-29T03:42:35;1.45;;;0.32;;
39566;SDS011;25241;41.978;14.664;2024-03-29T03:45:01;1.00;;;0.93;;
39566;SDS011;25241;41.978;14.664;2024-03-29T03:47:29;3.08;;;0.25;;
39566;SDS011;25241;41.978;14.664;2024-03-29T03:49:55;6.85;;;0.32;;
39566;SDS011;25241;41.978;14.664;2024-03-29T03:52:20;3.35;;;0.28;;
39566;SDS011;25241;41.978;14.664;2024-03-29T03:54:48;7.65;;;0.22;;
39566;SDS011;25241;41.978;14.664;2024-03-29T03:57:16;4.72;;;0.25;;
39566;SDS011;25241;41.978;14.664;2024-03-29T03:59:42;0.10;;;0.10;;
39566;SDS011;25241;41.978;14.664;2024-03-29T04:02:10;1.17;;;0.35;;
39566;SDS011;25241;41.978;14.664;2024-03-29T04:04:38;14.30;;;0.50;;
39566;SDS011;25241;41.978;14.664;2024-03-29T04:07:04;10.48;;;0.82;;
39566;SDS011;25241;41.978;14.664;2024-03-29T04:09:32;1.55;;;0.13;;
39566;SDS011;25241;41.978;14.664;2024-03-29T04:12:00;4.28;;;0.10;;
39566;SDS011;25241;41.978;14.664;2024-03-29T04:14:28;8.27;;;0.73;;
39566;SDS011;25241;41.978;14.664;2024-03-29T04:16:56;1.10;;;0.25;;
39566;SDS011;25241;41.978;14.664;2024-03-29T04:19:21;8.30;;;0.20;;
39566;SDS011;25241;41.978;14.664;2024-03-29T04:21:49;4.80;;;0.35;;
39566;SDS011;25241;41.978;14.664;2024-03-29T04:24:15;13.35;;;0.50;;
39566;SDS011;25241;41.978;14.664;2024-03-29T04:26:42;3.70;;;1.15;;
39566;SDS011;25241;41.978;14.664;2024-03-29T04:29:12;5.43;;;0.43;;
39566;SDS011;25241;41.978;14.664;2024-03-29T04:31:38;4.32;;;0.50;;
39566;SDS011;25241;41.978;14.664;2024-03-29T04:34:06;7.18;;;0.80;;
39566;SDS011;25241;41.978;14.664;2024-03-29T04:36:34;1.45;;;0.57;;
39566;SDS011;25241;41.978;14.664;2024-03-29T04:38:59;3.05;;;0.60;;
39566;SDS011;25241;41.978;14.664;2024-03-29T04:41:27;0.68;;;0.20;;
39566;SDS011;25241;41.978;14.664;2024-03-29T04:43:55;0.45;;;0.20;;
39566;SDS011;25241;41.978;14.664;2024-03-29T04:46:23;3.55;;;0.22;;
39566;SDS011;25241;41.978;14.664;2024-03-29T04:48:51;1.55;;;0.22;;
39566;SDS011;25241;41.978;14.664;2024-03-29T04:51:16;6.68;;;0.40;;
39566;SDS011;25241;41.978;14.664;2024-03-29T04:53:42;4.05;;;0.20;;
39566;SDS011;25241;41.978;14.664;2024-03-29T04:56:08;0.75;;;0.20;;
39566;SDS011;25241;41.978;14.664;2024-03-29T04:58:36;6.93;;;0.47;;
39566;SDS011;25241;41.978;14.664;2024-03-29T05:01:01;7.95;;;0.47;;
39566;SDS011;25241;41.978;14.664;2024-03-29T05:03:29;5.55;;;0.47;;
39566;SDS011;25241;41.978;14.664;2024-03-29T05:05:56;0.45;;;0.32;;
39566;SDS011;25241;41.978;14.664;2024-03-29T05:08:24;5.03;;;0.22;;
39566;SDS011;25241;41.978;14.664;2024-03-29T05:10:50;11.10;;;0.80;;
39566;SDS011;25241;41.978;14.664;2024-03-29T05:13:16;6.03;;;0.60;;
39566;SDS011;25241;41.978;14.664;2024-03-29T05:15:42;1.10;;;0.20;;
39566;SDS011;25241;41.978;14.664;2024-03-29T05:18:11;5.25;;;0.55;;
39566;SDS011;25241;41.978;14.664;2024-03-29T05:20:36;2.15;;;0.45;;
39566;SDS011;25241;41.978;14.664;2024-03-29T05:23:04;3.33;;;0.25;;
39566;SDS011;25241;41.978;14.664;2024-03-29T05:25:30;1.58;;;0.40;;
39566;SDS011;25241;41.978;14.664;2024-03-29T05:27:56;13.00;;;0.73;;
39566;SDS011;25241;41.978;14.664;2024-03-29T05:30:21;8.00;;;0.68;;
39566;SDS011;25241;41.978;14.664;2024-03-29T05:32:51;4.68;;;0.60;;
39566;SDS011;25241;41.978;14.664;2024-03-29T05:35:17;0.77;;;0.15;;
39566;SDS011;25241;41.978;14.664;2024-03-29T05:37:44;8.52;;;0.95;;
39566;SDS011;25241;41.978;14.664;2024-03-29T05:40:14;10.77;;;0.75;;
39566;SDS011;25241;41.978;14.664;2024-03-29T05:42:40;8.05;;;0.68;;
39566;SDS011;25241;41.978;14.664;2024-03-29T05:45:20;1.70;;;0.40;;
39566;SDS011;25241;41.978;14.664;2024-03-29T05:47:51;3.95;;;0.80;;
39566;SDS011;25241;41.978;14.664;2024-03-29T05:50:19;11.57;;;0.60;;
39566;SDS011;25241;41.978;14.664;2024-03-29T05:52:44;3.00;;;0.43;;
39566;SDS011;25241;41.978;14.664;2024-03-29T05:55:10;10.02;;;0.80;;
39566;SDS011;25241;41.978;14.664;2024-03-29T05:57:36;5.28;;;0.80;;
39566;SDS011;25241;41.978;14.664;2024-03-29T06:00:06;5.22;;;0.95;;
39566;SDS011;25241;41.978;14.664;2024-03-29T06:02:34;8.48;;;0.57;;
39566;SDS011;25241;41.978;14.664;2024-03-29T06:05:00;12.30;;;0.70;;
39566;SDS011;25241;41.978;14.664;2024-03-29T06:07:25;7.88;;;0.50;;
39566;SDS011;25241;41.978;14.664;2024-03-29T06:09:53;6.40;;;0.75;;
39566;SDS011;25241;41.978;14.664;2024-03-29T06:12:21;2.92;;;0.55;;
39566;SDS011;25241;41.978;14.664;2024-03-29T06:14:49;3.70;;;0.75;;
39566;SDS011;25241;41.978;14.664;2024-03-29T06:17:33;3.97;;;0.88;;
39566;SDS011;25241;41.978;14.664;2024-03-29T06:20:00;7.22;;;1.05;;
39566;SDS011;25241;41.978;14.664;2024-03-29T06:22:28;12.20;;;0.88;;
39566;SDS011;25241;41.978;14.664;2024-03-29T06:24:57;7.20;;;1.50;;
39566;SDS011;25241;41.978;14.664;2024-03-29T06:27:27;5.97;;;2.40;;
39566;SDS011;25241;41.978;14.664;2024-03-29T06:29:52;12.88;;;0.98;;
39566;SDS011;25241;41.978;14.664;2024-03-29T06:32:18;7.35;;;0.90;;
39566;SDS011;25241;41.978;14.664;2024-03-29T06:34:47;16.65;;;0.95;;
39566;SDS011;25241;41.978;14.664;2024-03-29T06:37:13;6.50;;;0.70;;
39566;SDS011;25241;41.978;14.664;2024-03-29T06:39:41;7.00;;;0.90;;
39566;SDS011;25241;41.978;14.664;2024-03-29T06:42:08;8.88;;;1.20;;
39566;SDS011;25241;41.978;14.664;2024-03-29T06:59:06;8.02;;;1.00;;
39566;SDS011;25241;41.978;14.664;2024-03-29T07:01:35;4.90;;;0.70;;
39566;SDS011;25241;41.978;14.664;2024-03-29T07:04:03;8.55;;;1.63;;
39566;SDS011;25241;41.978;14.664;2024-03-29T07:06:31;8.82;;;1.08;;
39566;SDS011;25241;41.978;14.664;2024-03-29T07:08:59;4.78;;;1.30;;
39566;SDS011;25241;41.978;14.664;2024-03-29T07:11:27;12.40;;;1.30;;
39566;SDS011;25241;41.978;14.664;2024-03-29T07:13:53;9.30;;;1.35;;
39566;SDS011;25241;41.978;14.664;2024-03-29T07:16:18;20.23;;;2.15;;
39566;SDS011;25241;41.978;14.664;2024-03-29T07:18:44;6.85;;;1.00;;
39566;SDS011;25241;41.978;14.664;2024-03-29T07:21:12;3.67;;;0.90;;
39566;SDS011;25241;41.978;14.664;2024-03-29T07:23:37;8.05;;;1.25;;
39566;SDS011;25241;41.978;14.664;2024-03-29T07:26:03;11.13;;;1.52;;
39566;SDS011;25241;41.978;14.664;2024-03-29T07:28:32;16.92;;;1.17;;
39566;SDS011;25241;41.978;14.664;2024-03-29T07:30:57;6.65;;;1.13;;
39566;SDS011;25241;41.978;14.664;2024-03-29T07:33:31;9.45;;;1.10;;
39566;SDS011;25241;41.978;14.664;2024-03-29T07:35:57;11.82;;;1.65;;
39566;SDS011;25241;41.978;14.664;2024-03-29T07:38:22;7.03;;;0.90;;
39566;SDS011;25241;41.978;14.664;2024-03-29T07:40:49;3.15;;;1.08;;
39566;SDS011;25241;41.978;14.664;2024-03-29T07:43:15;5.50;;;1.05;;
39566;SDS011;25241;41.978;14.664;2024-03-29T07:45:41;8.95;;;0.70;;
39566;SDS011;25241;41.978;14.664;2024-03-29T07:48:11;10.13;;;0.90;;
39566;SDS011;25241;41.978;14.664;2024-03-29T08:19:47;6.15;;;0.95;;
39566;SDS011;25241;41.978;14.664;2024-03-29T08:24:39;7.78;;;1.33;;
39566;SDS011;25241;41.978;14.664;2024-03-29T08:27:07;4.68;;;0.52;;
39566;SDS011;25241;41.978;14.664;2024-03-29T08:29:32;4.90;;;0.60;;
39566;SDS011;25241;41.978;14.664;2024-03-29T08:32:03;9.80;;;0.82;;
39566;SDS011;25241;41.978;14.664;2024-03-29T08:34:33;2.85;;;0.63;;
39566;SDS011;25241;41.978;14.664;2024-03-29T08:37:03;4.70;;;0.40;;
39566;SDS011;25241;41.978;14.664;2024-03-29T08:39:32;12.15;;;0.90;;
39566;SDS011;25241;41.978;14.664;2024-03-29T08:54:06;6.90;;;0.65;;
39566;SDS011;25241;41.978;14.664;2024-03-29T09:13:38;2.63;;;0.10;;
39566;SDS011;25241;41.978;14.664;2024-03-29T09:16:04;11.40;;;1.17;;
39566;SDS011;25241;41.978;14.664;2024-03-29T09:18:30;4.55;;;0.45;;
39566;SDS011;25241;41.978;14.664;2024-03-29T09:20:58;7.13;;;0.55;;
39566;SDS011;25241;41.978;14.664;2024-03-29T09:23:25;3.38;;;0.30;;
39566;SDS011;25241;41.978;14.664;2024-03-29T09:25:51;2.97;;;0.30;;
39566;SDS011;25241;41.978;14.664;2024-03-29T09:28:17;1.75;;;0.32;;
39566;SDS011;25241;41.978;14.664;2024-03-29T09:30:45;3.40;;;0.50;;
39566;SDS011;25241;41.978;14.664;2024-03-29T09:33:10;4.30;;;0.70;;
39566;SDS011;25241;41.978;14.664;2024-03-29T09:35:36;2.72;;;0.60;;
39566;SDS011;25241;41.978;14.664;2024-03-29T09:38:02;13.15;;;0.52;;
39566;SDS011;25241;41.978;14.664;2024-03-29T09:40:31;3.17;;;0.28;;
39566;SDS011;25241;41.978;14.664;2024-03-29T09:43:00;5.00;;;0.60;;
39566;SDS011;25241;41.978;14.664;2024-03-29T09:45:34;1.75;;;0.38;;
39566;SDS011;25241;41.978;14.664;2024-03-29T09:48:04;4.38;;;0.32;;
39566;SDS011;25241;41.978;14.664;2024-03-29T09:50:32;11.60;;;1.83;;
39566;SDS011;25241;41.978;14.664;2024-03-29T09:53:02;5.72;;;0.43;;
39566;SDS011;25241;41.978;14.664;2024-03-29T09:55:29;2.55;;;0.20;;
39566;SDS011;25241;41.978;14.664;2024-03-29T09:57:55;8.57;;;0.40;;
39566;SDS011;25241;41.978;14.664;2024-03-29T10:00:22;4.07;;;0.85;;
39566;SDS011;25241;41.978;14.664;2024-03-29T10:02:49;8.15;;;0.50;;
39566;SDS011;25241;41.978;14.664;2024-03-29T10:05:15;6.30;;;0.43;;
39566;SDS011;25241;41.978;14.664;2024-03-29T10:07:42;9.25;;;0.80;;
39566;SDS011;25241;41.978;14.664;2024-03-29T10:10:09;3.28;;;0.68;;
39566;SDS011;25241;41.978;14.664;2024-03-29T10:12:36;5.88;;;0.57;;
39566;SDS011;25241;41.978;14.664;2024-03-29T10:15:03;2.08;;;0.55;;
39566;SDS011;25241;41.978;14.664;2024-03-29T10:17:39;15.82;;;1.45;;
39566;SDS011;25241;41.978;14.664;2024-03-29T10:20:04;1.85;;;0.55;;
39566;SDS011;25241;41.978;14.664;2024-03-29T10:22:43;3.75;;;0.90;;
39566;SDS011;25241;41.978;14.664;2024-03-29T10:25:09;5.50;;;0.70;;
39566;SDS011;25241;41.978;14.664;2024-03-29T10:27:41;8.98;;;1.25;;
39566;SDS011;25241;41.978;14.664;2024-03-29T10:30:09;6.07;;;0.87;;
39566;SDS011;25241;41.978;14.664;2024-03-29T10:32:39;13.65;;;1.50;;
39566;SDS011;25241;41.978;14.664;2024-03-29T10:35:08;9.30;;;1.95;;
39566;SDS011;25241;41.978;14.664;2024-03-29T10:37:34;11.90;;;0.95;;
39566;SDS011;25241;41.978;14.664;2024-03-29T10:40:09;4.80;;;0.55;;
39566;SDS011;25241;41.978;14.664;2024-03-29T10:42:38;2.95;;;0.55;;
39566;SDS011;25241;41.978;14.664;2024-03-29T10:45:08;4.55;;;0.40;;
39566;SDS011;25241;41.978;14.664;2024-03-29T10:50:02;9.95;;;0.88;;
39566;SDS011;25241;41.978;14.664;2024-03-29T10:52:30;2.60;;;0.35;;
39566;SDS011;25241;41.978;14.664;2024-03-29T10:54:56;5.43;;;1.10;;
39566;SDS011;25241;41.978;14.664;2024-03-29T10:57:27;16.92;;;0.98;;
39566;SDS011;25241;41.978;14.664;2024-03-29T11:05:12;9.00;;;0.82;;
39566;SDS011;25241;41.978;14.664;2024-03-29T11:07:40;8.35;;;1.15;;
39566;SDS011;25241;41.978;14.664;2024-03-29T11:10:11;8.32;;;0.77;;
39566;SDS011;25241;41.978;14.664;2024-03-29T11:13:02;8.55;;;0.80;;
39566;SDS011;25241;41.978;14.664;2024-03-29T11:15:30;4.00;;;1.10;;
39566;SDS011;25241;41.978;14.664;2024-03-29T11:17:58;15.57;;;1.98;;
39566;SDS011;25241;41.978;14.664;2024-03-29T11:20:25;12.43;;;1.10;;
39566;SDS011;25241;41.978;14.664;2024-03-29T11:23:05;10.40;;;1.17;;
39566;SDS011;25241;41.978;14.664;2024-03-29T11:25:38;4.60;;;0.60;;
39566;SDS011;25241;41.978;14.664;2024-03-29T11:28:05;10.20;;;1.33;;
39566;SDS011;25241;41.978;14.664;2024-03-29T11:30:39;10.52;;;1.55;;
39566;SDS011;25241;41.978;14.664;2024-03-29T11:33:08;7.13;;;1.05;;
39566;SDS011;25241;41.978;14.664;2024-03-29T11:35:50;27.67;;;3.70;;
39566;SDS011;25241;41.978;14.664;2024-03-29T11:38:19;12.32;;;1.20;;
39566;SDS011;25241;41.978;14.664;2024-03-29T11:40:54;14.67;;;1.47;;
39566;SDS011;25241;41.978;14.664;2024-03-29T11:43:20;12.32;;;1.23;;
39566;SDS011;25241;41.978;14.664;2024-03-29T11:45:46;18.73;;;1.17;;
39566;SDS011;25241;41.978;14.664;2024-03-29T11:48:16;9.85;;;0.90;;
39566;SDS011;25241;41.978;14.664;2024-03-29T11:50:47;15.93;;;1.27;;
39566;SDS011;25241;41.978;14.664;2024-03-29T11:53:13;16.77;;;1.73;;
39566;SDS011;25241;41.978;14.664;2024-03-29T11:55:41;10.95;;;1.27;;
39566;SDS011;25241;41.978;14.664;2024-03-29T11:58:06;11.65;;;1.23;;
39566;SDS011;25241;41.978;14.664;2024-03-29T12:00:32;22.70;;;1.75;;
39566;SDS011;25241;41.978;14.664;2024-03-29T12:02:58;10.88;;;1.25;;
39566;SDS011;25241;41.978;14.664;2024-03-29T12:05:23;14.30;;;2.58;;
39566;SDS011;25241;41.978;14.664;2024-03-29T12:07:49;11.80;;;1.40;;
39566;SDS011;25241;41.978;14.664;2024-03-29T12:10:15;12.02;;;1.33;;
39566;SDS011;25241;41.978;14.664;2024-03-29T12:12:45;16.80;;;1.58;;
39566;SDS011;25241;41.978;14.664;2024-03-29T13:13:42;32.85;;;3.22;;
39566;SDS011;25241;41.978;14.664;2024-03-29T13:16:08;39.70;;;2.53;;
39566;SDS011;25241;41.978;14.664;2024-03-29T13:18:34;28.45;;;2.80;;
39566;SDS011;25241;41.978;14.664;2024-03-29T13:21:00;28.65;;;2.33;;
39566;SDS011;25241;41.978;14.664;2024-03-29T13:23:27;23.42;;;2.42;;
39566;SDS011;25241;41.978;14.664;2024-03-29T13:25:53;34.60;;;2.45;;
39566;SDS011;25241;41.978;14.664;2024-03-29T13:28:21;22.48;;;1.88;;
39566;SDS011;25241;41.978;14.664;2024-03-29T13:30:47;22.02;;;3.15;;
39566;SDS011;25241;41.978;14.664;2024-03-29T13:33:15;36.05;;;3.05;;
39566;SDS011;25241;41.978;14.664;2024-03-29T13:35:43;34.95;;;3.83;;
39566;SDS011;25241;41.978;14.664;2024-03-29T13:38:10;18.30;;;3.22;;
39566;SDS011;25241;41.978;14.664;2024-03-29T13:40:36;27.13;;;3.17;;
39566;SDS011;25241;41.978;14.664;2024-03-29T13:43:02;32.10;;;3.40;;
39566;SDS011;25241;41.978;14.664;2024-03-29T13:45:28;43.20;;;5.28;;
39566;SDS011;25241;41.978;14.664;2024-03-29T13:47:53;32.53;;;2.75;;
39566;SDS011;25241;41.978;14.664;2024-03-29T13:50:22;42.72;;;4.53;;
39566;SDS011;25241;41.978;14.664;2024-03-29T13:52:48;41.33;;;4.15;;
39566;SDS011;25241;41.978;14.664;2024-03-29T13:55:15;29.50;;;3.92;;
39566;SDS011;25241;41.978;14.664;2024-03-29T13:57:40;35.13;;;3.20;;
39566;SDS011;25241;41.978;14.664;2024-03-29T14:00:06;46.08;;;4.57;;
39566;SDS011;25241;41.978;14.664;2024-03-29T14:02:34;34.10;;;3.53;;
39566;SDS011;25241;41.978;14.664;2024-03-29T14:05:00;29.85;;;4.70;;
39566;SDS011;25241;41.978;14.664;2024-03-29T14:07:28;26.75;;;4.07;;
39566;SDS011;25241;41.978;14.664;2024-03-29T14:09:54;37.58;;;4.03;;
39566;SDS011;25241;41.978;14.664;2024-03-29T14:12:19;29.85;;;4.05;;
39566;SDS011;25241;41.978;14.664;2024-03-29T14:14:47;34.42;;;3.53;;
39566;SDS011;25241;41.978;14.664;2024-03-29T14:17:15;49.53;;;5.22;;
39566;SDS011;25241;41.978;14.664;2024-03-29T14:19:41;35.30;;;3.97;;
39566;SDS011;25241;41.978;14.664;2024-03-29T14:22:06;38.95;;;5.82;;
39566;SDS011;25241;41.978;14.664;2024-03-29T14:46:35;37.80;;;5.03;;
39566;SDS011;25241;41.978;14.664;2024-03-29T14:49:01;55.05;;;6.20;;
39566;SDS011;25241;41.978;14.664;2024-03-29T14:51:31;45.95;;;4.25;;
39566;SDS011;25241;41.978;14.664;2024-03-29T14:53:57;53.08;;;4.18;;
39566;SDS011;25241;41.978;14.664;2024-03-29T14:56:22;50.08;;;6.20;;
39566;SDS011;25241;41.978;14.664;2024-03-29T14:58:50;52.92;;;5.30;;
39566;SDS011;25241;41.978;14.664;2024-03-29T15:01:16;65.78;;;6.05;;
39566;SDS011;25241;41.978;14.664;2024-03-29T15:03:44;41.55;;;5.10;;
39566;SDS011;25241;41.978;14.664;2024-03-29T15:06:12;41.42;;;5.75;;
39566;SDS011;25241;41.978;14.664;2024-03-29T15:08:40;83.90;;;7.55;;
39566;SDS011;25241;41.978;14.664;2024-03-29T15:11:06;44.58;;;4.30;;
39566;SDS011;25241;41.978;14.664;2024-03-29T15:13:32;59.55;;;5.63;;
39566;SDS011;25241;41.978;14.664;2024-03-29T15:16:00;69.63;;;5.15;;
39566;SDS011;25241;41.978;14.664;2024-03-29T15:18:28;64.72;;;8.00;;
39566;SDS011;25241;41.978;14.664;2024-03-29T15:20:57;59.10;;;4.82;;
39566;SDS011;25241;41.978;14.664;2024-03-29T15:23:27;47.00;;;5.32;;
39566;SDS011;25241;41.978;14.664;2024-03-29T15:25:53;52.53;;;5.80;;
39566;SDS011;25241;41.978;14.664;2024-03-29T15:28:20;40.05;;;3.83;;
39566;SDS011;25241;41.978;14.664;2024-03-29T15:31:08;43.92;;;4.53;;
39566;SDS011;25241;41.978;14.664;2024-03-29T15:33:39;45.40;;;4.55;;
39566;SDS011;25241;41.978;14.664;2024-03-29T15:36:07;40.67;;;3.80;;
39566;SDS011;25241;41.978;14.664;2024-03-29T15:38:36;39.63;;;3.97;;
39566;SDS011;25241;41.978;14.664;2024-03-29T15:41:03;58.00;;;8.03;;
39566;SDS011;25241;41.978;14.664;2024-03-29T15:43:33;55.00;;;5.43;;
39566;SDS011;25241;41.978;14.664;2024-03-29T15:46:01;43.80;;;3.83;;
39566;SDS011;25241;41.978;14.664;2024-03-29T15:48:29;51.03;;;4.95;;
39566;SDS011;25241;41.978;14.664;2024-03-29T15:50:57;64.80;;;4.10;;
39566;SDS011;25241;41.978;14.664;2024-03-29T15:53:25;40.67;;;5.68;;
39566;SDS011;25241;41.978;14.664;2024-03-29T15:55:51;46.28;;;4.68;;
39566;SDS011;25241;41.978;14.664;2024-03-29T15:58:17;59.92;;;4.28;;
39566;SDS011;25241;41.978;14.664;2024-03-29T16:00:43;62.65;;;7.65;;
39566;SDS011;25241;41.978;14.664;2024-03-29T16:03:12;49.92;;;5.32;;
39566;SDS011;25241;41.978;14.664;2024-03-29T16:05:39;42.13;;;5.45;;
39566;SDS011;25241;41.978;14.664;2024-03-29T16:08:06;29.83;;;4.65;;
39566;SDS011;25241;41.978;14.664;2024-03-29T16:10:33;42.78;;;3.90;;
39566;SDS011;25241;41.978;14.664;2024-03-29T16:12:59;53.40;;;6.03;;
39566;SDS011;25241;41.978;14.664;2024-03-29T16:15:25;23.25;;;5.22;;
39566;SDS011;25241;41.978;14.664;2024-03-29T16:17:53;48.00;;;6.28;;
39566;SDS011;25241;41.978;14.664;2024-03-29T16:20:21;43.83;;;4.30;;
39566;SDS011;25241;41.978;14.664;2024-03-29T16:22:49;65.30;;;6.30;;
39566;SDS011;25241;41.978;14.664;2024-03-29T16:25:14;44.10;;;4.28;;
39566;SDS011;25241;41.978;14.664;2024-03-29T16:27:40;51.92;;;4.72;;
39566;SDS011;25241;41.978;14.664;2024-03-29T16:30:06;54.95;;;4.75;;
39566;SDS011;25241;41.978;14.664;2024-03-29T16:32:32;58.33;;;7.53;;
39566;SDS011;25241;41.978;14.664;2024-03-29T16:35:02;67.47;;;7.47;;
39566;SDS011;25241;41.978;14.664;2024-03-29T16:37:28;49.53;;;6.15;;
39566;SDS011;25241;41.978;14.664;2024-03-29T16:39:53;62.17;;;6.30;;
39566;SDS011;25241;41.978;14.664;2024-03-29T16:42:19;59.80;;;5.97;;
39566;SDS011;25241;41.978;14.664;2024-03-29T16:44:44;51.58;;;4.68;;
39566;SDS011;25241;41.978;14.664;2024-03-29T16:47:10;50.03;;;3.47;;
39566;SDS011;25241;41.978;14.664;2024-03-29T16:49:38;59.47;;;5.28;;
39566;SDS011;25241;41.978;14.664;2024-03-29T16:52:04;45.35;;;5.35;;
39566;SDS011;25241;41.978;14.664;2024-03-29T16:54:33;53.17;;;5.68;;
39566;SDS011;25241;41.978;14.664;2024-03-29T16:56:58;40.20;;;4.88;;
39566;SDS011;25241;41.978;14.664;2024-03-29T16:59:26;64.45;;;5.72;;
39566;SDS011;25241;41.978;14.664;2024-03-29T17:01:53;42.08;;;4.82;;
39566;SDS011;25241;41.978;14.664;2024-03-29T17:04:19;33.53;;;4.97;;
39566;SDS011;25241;41.978;14.664;2024-03-29T17:06:45;58.20;;;5.28;;
39566;SDS011;25241;41.978;14.664;2024-03-29T17:09:13;45.05;;;4.05;;
39566;SDS011;25241;41.978;14.664;2024-03-29T17:12:14;34.42;;;3.35;;
39566;SDS011;25241;41.978;14.664;2024-03-29T17:14:42;34.75;;;4.38;;